Ag Nektarios Aiginas — SX7083 — position and weather

sailwx.info

Track history (hours):
 
Tides and Currents Weather Stations Pressure Air Temp Water Temp Dewpoint Dewpoint Depression Visibility Wind Speed Wind Dir Waves Ship Positions

Ag Nektarios Aiginas

Last reported at 2015-Jul-03 15:33 UTC. Time now 2015-Jul-03 15:34 UTC.
Position N 37°47' E 023°26'.

Length 75 m; draft 2.7 m.

Type: Passenger vessel. MMSI: 237021400.

Date/timePositionNaut miles runAvg speedWind from/ knotsBaromVisibWave heightAir tempDewpointWater temp
2015-Jul-03 15:33N 37°47' E 023°26'2 2.3
2015-Jul-03 14:33N 37°45' E 023°25'1312.6
2015-Jul-03 13:33N 37°54' E 023°35'3 3.4
2015-Jul-03 12:33N 37°57' E 023°39'0 0.0
2015-Jul-03 09:10N 37°57' E 023°39'2 3.5
2015-Jul-03 08:33N 37°56' E 023°36'1312.6
2015-Jul-03 07:33N 37°46' E 023°25'1 0.7
2015-Jul-03 06:33N 37°47' E 023°26'1312.8
2015-Jul-03 05:33N 37°56' E 023°37'1 1.2
2015-Jul-03 04:33N 37°57' E 023°39'3 0.2
2015-Jul-02 16:33N 37°55' E 023°36'1312.7
2015-Jul-02 15:34N 37°46' E 023°25'2 1.7
2015-Jul-02 14:34N 37°47' E 023°26'1312.9
2015-Jul-02 13:33N 37°56' E 023°37'1 1.1
2015-Jul-02 12:34N 37°56' E 023°36'1312.5
2015-Jul-02 11:33N 37°46' E 023°26'0 0.2
2015-Jul-02 10:33N 37°46' E 023°25'1313.0
2015-Jul-02 09:33N 37°56' E 023°37'0 0.0
2015-Jul-01 16:33N 37°56' E 023°37'1312.7
2015-Jul-01 15:33N 37°47' E 023°26'1 1.0
2015-Jul-01 14:32N 37°46' E 023°25'1313.1
2015-Jul-01 13:33N 37°55' E 023°36'1 0.7
2015-Jul-01 12:33N 37°56' E 023°36'1312.7
2015-Jul-01 11:33N 37°46' E 023°26'0 0.1
2015-Jul-01 10:33N 37°47' E 023°26'1312.9
2015-Jul-01 09:33N 37°56' E 023°37'2 1.6
2015-Jul-01 08:33N 37°57' E 023°39'1 0.1
2015-Jun-30 16:33N 37°56' E 023°37'1312.9
2015-Jun-30 15:33N 37°47' E 023°26'2 1.8
2015-Jun-30 14:33N 37°46' E 023°24'1313.0
2015-Jun-30 13:33N 37°55' E 023°36'2 1.7
2015-Jun-30 12:33N 37°56' E 023°37'1313.0
2015-Jun-30 11:33N 37°47' E 023°26'1 1.4
2015-Jun-30 10:33N 37°46' E 023°25'1312.9
2015-Jun-30 09:33N 37°55' E 023°36'3 2.7
2015-Jun-30 08:33N 37°57' E 023°38'1111.3
2015-Jun-30 07:33N 37°48' E 023°29'3 3.3
2015-Jun-30 06:33N 37°46' E 023°25'1313.0
2015-Jun-30 05:33N 37°56' E 023°37'2 1.7
2015-Jun-30 04:33N 37°57' E 023°39'0 0.0
2015-Jun-29 17:13N 37°57' E 023°38'5 7.5
2015-Jun-29 16:33N 37°53' E 023°34'1110.8
2015-Jun-29 15:33N 37°45' E 023°26'4 4.4
2015-Jun-29 14:33N 37°48' E 023°29'1111.4
2015-Jun-29 13:33N 37°57' E 023°39'2 2.3
2015-Jun-29 12:33N 37°55' E 023°36'1312.5
2015-Jun-29 11:33N 37°46' E 023°25'1 1.3
2015-Jun-29 10:33N 37°45' E 023°25'1312.8
2015-Jun-29 09:33N 37°54' E 023°36'3 2.7
2015-Jun-29 08:33N 37°56' E 023°38'1211.7
2015-Jun-29 07:33N 37°48' E 023°28'2 2.0
2015-Jun-29 06:32N 37°47' E 023°26'1312.9
2015-Jun-29 05:34N 37°56' E 023°37'2 1.7
2015-Jun-29 04:33N 37°57' E 023°39'0 0.0
2015-Jun-28 19:33N 37°57' E 023°38'1312.7
2015-Jun-28 18:33N 37°47' E 023°27'3 2.8
2015-Jun-28 17:33N 37°45' E 023°25'1312.7
2015-Jun-28 16:33N 37°55' E 023°35'1 1.1
2015-Jun-28 15:33N 37°54' E 023°35'1211.5
2015-Jun-28 14:33N 37°45' E 023°25'3 3.0
2015-Jun-28 13:33N 37°47' E 023°27'1312.6
2015-Jun-28 12:33N 37°56' E 023°38'4 3.7
2015-Jun-28 11:33N 37°54' E 023°35'1211.6
2015-Jun-28 10:33N 37°45' E 023°25'3 3.1
2015-Jun-28 09:34N 37°47' E 023°27'1312.6
2015-Jun-28 08:33N 37°57' E 023°38'4 4.3
2015-Jun-28 07:33N 37°53' E 023°35'1111.3
2015-Jun-28 06:34N 37°45' E 023°25'5 5.5
2015-Jun-28 05:33N 37°49' E 023°30'1010.3
2015-Jun-28 04:34N 37°57' E 023°39'0 0.0
2015-Jun-27 17:08N 37°57' E 023°39'4 7.1
2015-Jun-27 16:33N 37°54' E 023°35'1211.8
2015-Jun-27 15:33N 37°45' E 023°25'4 4.3
2015-Jun-27 14:33N 37°48' E 023°29'1211.6
2015-Jun-27 13:33N 37°57' E 023°38'2 1.9
2015-Jun-27 12:33N 37°56' E 023°36'1212.1
2015-Jun-27 11:33N 37°47' E 023°26'2 2.2
2015-Jun-27 10:33N 37°48' E 023°28'1211.8
2015-Jun-27 09:33N 37°57' E 023°38'1 1.4
2015-Jun-27 08:33N 37°56' E 023°37'1312.5
2015-Jun-27 07:33N 37°47' E 023°26'0 0.2
2015-Jun-27 06:32N 37°47' E 023°26'1312.8
2015-Jun-27 05:33N 37°56' E 023°37'1 1.2
2015-Jun-27 04:33N 37°57' E 023°39'1 0.1
2015-Jun-26 16:33N 37°56' E 023°37'1312.7
2015-Jun-26 15:33N 37°47' E 023°26'0 0.3
2015-Jun-26 14:33N 37°47' E 023°26'1312.6
2015-Jun-26 13:33N 37°56' E 023°37'0 0.5
2015-Jun-26 12:33N 37°56' E 023°37'1312.6
2015-Jun-26 11:33N 37°47' E 023°26'0 0.4
2015-Jun-26 10:32N 37°47' E 023°26'1312.9
2015-Jun-26 09:33N 37°56' E 023°37'1 1.3
2015-Jun-26 08:33N 37°57' E 023°38'1110.8
2015-Jun-26 07:33N 37°49' E 023°29'4 3.5
2015-Jun-26 06:32N 37°47' E 023°26'1313.0
2015-Jun-26 05:33N 37°56' E 023°37'1 0.1
2015-Jun-25 16:33N 37°56' E 023°38'1313.0
2015-Jun-25 15:33N 37°47' E 023°26'1 0.9
2015-Jun-25 14:31N 37°46' E 023°25'1212.7
2015-Jun-25 13:33N 37°55' E 023°36'2 1.6
2015-Jun-25 12:33N 37°56' E 023°38'1212.4
2015-Jun-25 11:33N 37°47' E 023°27'3 2.6
2015-Jun-25 10:33N 37°46' E 023°25'1313.0
2015-Jun-25 09:33N 37°55' E 023°36'3 2.6
2015-Jun-25 08:33N 37°57' E 023°38'1211.9
2015-Jun-25 07:33N 37°48' E 023°28'3 2.7
2015-Jun-25 06:33N 37°46' E 023°25'1312.9
2015-Jun-25 05:33N 37°56' E 023°37'2 1.8
2015-Jun-25 04:33N 37°57' E 023°39'1 0.1
2015-Jun-24 16:33N 37°56' E 023°37'1313.0
2015-Jun-24 15:33N 37°47' E 023°26'1 1.0
2015-Jun-24 14:33N 37°46' E 023°25'1312.8
2015-Jun-24 13:33N 37°55' E 023°36'1 1.3
2015-Jun-24 12:33N 37°56' E 023°38'1312.7
2015-Jun-24 11:33N 37°47' E 023°27'2 2.2
2015-Jun-24 10:33N 37°46' E 023°25'1312.8
2015-Jun-24 09:33N 37°55' E 023°36'3 2.9
2015-Jun-24 08:33N 37°57' E 023°39'1111.2
2015-Jun-24 07:33N 37°48' E 023°29'4 3.5
2015-Jun-24 06:33N 37°46' E 023°25'1312.7
2015-Jun-24 05:33N 37°55' E 023°36'2 2.1
2015-Jun-24 04:33N 37°57' E 023°39'  
Track history (hours):
 
Tides and Currents Weather Stations Pressure Air Temp Water Temp Dewpoint Dewpoint Depression Visibility Wind Speed Wind Dir Waves Ship Positions

Ag Nektarios Aiginas

Last reported at 2015-Jul-03 15:33 UTC. Time now 2015-Jul-03 15:34 UTC.
Position N 37°47' E 023°26'.

Length 75 m; draft 2.7 m.

Type: Passenger vessel. MMSI: 237021400.

Date/timePositionNaut miles runAvg speedWind from/ knotsBaromVisibWave heightAir tempDewpointWater temp
2015-Jul-03 15:33N 37°47' E 023°26'2 2.3
2015-Jul-03 14:33N 37°45' E 023°25'1312.6
2015-Jul-03 13:33N 37°54' E 023°35'3 3.4
2015-Jul-03 12:33N 37°57' E 023°39'0 0.0
2015-Jul-03 09:10N 37°57' E 023°39'2 3.5
2015-Jul-03 08:33N 37°56' E 023°36'1312.6
2015-Jul-03 07:33N 37°46' E 023°25'1 0.7
2015-Jul-03 06:33N 37°47' E 023°26'1312.8
2015-Jul-03 05:33N 37°56' E 023°37'1 1.2
2015-Jul-03 04:33N 37°57' E 023°39'3 0.2
2015-Jul-02 16:33N 37°55' E 023°36'1312.7
2015-Jul-02 15:34N 37°46' E 023°25'2 1.7
2015-Jul-02 14:34N 37°47' E 023°26'1312.9
2015-Jul-02 13:33N 37°56' E 023°37'1 1.1
2015-Jul-02 12:34N 37°56' E 023°36'1312.5
2015-Jul-02 11:33N 37°46' E 023°26'0 0.2
2015-Jul-02 10:33N 37°46' E 023°25'1313.0
2015-Jul-02 09:33N 37°56' E 023°37'0 0.0
2015-Jul-01 16:33N 37°56' E 023°37'1312.7
2015-Jul-01 15:33N 37°47' E 023°26'1 1.0
2015-Jul-01 14:32N 37°46' E 023°25'1313.1
2015-Jul-01 13:33N 37°55' E 023°36'1 0.7
2015-Jul-01 12:33N 37°56' E 023°36'1312.7
2015-Jul-01 11:33N 37°46' E 023°26'0 0.1
2015-Jul-01 10:33N 37°47' E 023°26'1312.9
2015-Jul-01 09:33N 37°56' E 023°37'2 1.6
2015-Jul-01 08:33N 37°57' E 023°39'1 0.1
2015-Jun-30 16:33N 37°56' E 023°37'1312.9
2015-Jun-30 15:33N 37°47' E 023°26'2 1.8
2015-Jun-30 14:33N 37°46' E 023°24'1313.0
2015-Jun-30 13:33N 37°55' E 023°36'2 1.7
2015-Jun-30 12:33N 37°56' E 023°37'1313.0
2015-Jun-30 11:33N 37°47' E 023°26'1 1.4
2015-Jun-30 10:33N 37°46' E 023°25'1312.9
2015-Jun-30 09:33N 37°55' E 023°36'3 2.7
2015-Jun-30 08:33N 37°57' E 023°38'1111.3
2015-Jun-30 07:33N 37°48' E 023°29'3 3.3
2015-Jun-30 06:33N 37°46' E 023°25'1313.0
2015-Jun-30 05:33N 37°56' E 023°37'2 1.7
2015-Jun-30 04:33N 37°57' E 023°39'0 0.0
2015-Jun-29 17:13N 37°57' E 023°38'5 7.5
2015-Jun-29 16:33N 37°53' E 023°34'1110.8
2015-Jun-29 15:33N 37°45' E 023°26'4 4.4
2015-Jun-29 14:33N 37°48' E 023°29'1111.4
2015-Jun-29 13:33N 37°57' E 023°39'2 2.3
2015-Jun-29 12:33N 37°55' E 023°36'1312.5
2015-Jun-29 11:33N 37°46' E 023°25'1 1.3
2015-Jun-29 10:33N 37°45' E 023°25'1312.8
2015-Jun-29 09:33N 37°54' E 023°36'3 2.7
2015-Jun-29 08:33N 37°56' E 023°38'1211.7
2015-Jun-29 07:33N 37°48' E 023°28'2 2.0
2015-Jun-29 06:32N 37°47' E 023°26'1312.9
2015-Jun-29 05:34N 37°56' E 023°37'2 1.7
2015-Jun-29 04:33N 37°57' E 023°39'0 0.0
2015-Jun-28 19:33N 37°57' E 023°38'1312.7
2015-Jun-28 18:33N 37°47' E 023°27'3 2.8
2015-Jun-28 17:33N 37°45' E 023°25'1312.7
2015-Jun-28 16:33N 37°55' E 023°35'1 1.1
2015-Jun-28 15:33N 37°54' E 023°35'1211.5
2015-Jun-28 14:33N 37°45' E 023°25'3 3.0
2015-Jun-28 13:33N 37°47' E 023°27'1312.6
2015-Jun-28 12:33N 37°56' E 023°38'4 3.7
2015-Jun-28 11:33N 37°54' E 023°35'1211.6
2015-Jun-28 10:33N 37°45' E 023°25'3 3.1
2015-Jun-28 09:34N 37°47' E 023°27'1312.6
2015-Jun-28 08:33N 37°57' E 023°38'4 4.3
2015-Jun-28 07:33N 37°53' E 023°35'1111.3
2015-Jun-28 06:34N 37°45' E 023°25'5 5.5
2015-Jun-28 05:33N 37°49' E 023°30'1010.3
2015-Jun-28 04:34N 37°57' E 023°39'0 0.0
2015-Jun-27 17:08N 37°57' E 023°39'4 7.1
2015-Jun-27 16:33N 37°54' E 023°35'1211.8
2015-Jun-27 15:33N 37°45' E 023°25'4 4.3
2015-Jun-27 14:33N 37°48' E 023°29'1211.6
2015-Jun-27 13:33N 37°57' E 023°38'2 1.9
2015-Jun-27 12:33N 37°56' E 023°36'1212.1
2015-Jun-27 11:33N 37°47' E 023°26'2 2.2
2015-Jun-27 10:33N 37°48' E 023°28'1211.8
2015-Jun-27 09:33N 37°57' E 023°38'1 1.4
2015-Jun-27 08:33N 37°56' E 023°37'1312.5
2015-Jun-27 07:33N 37°47' E 023°26'0 0.2
2015-Jun-27 06:32N 37°47' E 023°26'1312.8
2015-Jun-27 05:33N 37°56' E 023°37'1 1.2
2015-Jun-27 04:33N 37°57' E 023°39'1 0.1
2015-Jun-26 16:33N 37°56' E 023°37'1312.7
2015-Jun-26 15:33N 37°47' E 023°26'0 0.3
2015-Jun-26 14:33N 37°47' E 023°26'1312.6
2015-Jun-26 13:33N 37°56' E 023°37'0 0.5
2015-Jun-26 12:33N 37°56' E 023°37'1312.6
2015-Jun-26 11:33N 37°47' E 023°26'0 0.4
2015-Jun-26 10:32N 37°47' E 023°26'1312.9
2015-Jun-26 09:33N 37°56' E 023°37'1 1.3
2015-Jun-26 08:33N 37°57' E 023°38'1110.8
2015-Jun-26 07:33N 37°49' E 023°29'4 3.5
2015-Jun-26 06:32N 37°47' E 023°26'1313.0
2015-Jun-26 05:33N 37°56' E 023°37'1 0.1
2015-Jun-25 16:33N 37°56' E 023°38'1313.0
2015-Jun-25 15:33N 37°47' E 023°26'1 0.9
2015-Jun-25 14:31N 37°46' E 023°25'1212.7
2015-Jun-25 13:33N 37°55' E 023°36'2 1.6
2015-Jun-25 12:33N 37°56' E 023°38'1212.4
2015-Jun-25 11:33N 37°47' E 023°27'3 2.6
2015-Jun-25 10:33N 37°46' E 023°25'1313.0
2015-Jun-25 09:33N 37°55' E 023°36'3 2.6
2015-Jun-25 08:33N 37°57' E 023°38'1211.9
2015-Jun-25 07:33N 37°48' E 023°28'3 2.7
2015-Jun-25 06:33N 37°46' E 023°25'1312.9
2015-Jun-25 05:33N 37°56' E 023°37'2 1.8
2015-Jun-25 04:33N 37°57' E 023°39'1 0.1
2015-Jun-24 16:33N 37°56' E 023°37'1313.0
2015-Jun-24 15:33N 37°47' E 023°26'1 1.0
2015-Jun-24 14:33N 37°46' E 023°25'1312.8
2015-Jun-24 13:33N 37°55' E 023°36'1 1.3
2015-Jun-24 12:33N 37°56' E 023°38'1312.7
2015-Jun-24 11:33N 37°47' E 023°27'2 2.2
2015-Jun-24 10:33N 37°46' E 023°25'1312.8
2015-Jun-24 09:33N 37°55' E 023°36'3 2.9
2015-Jun-24 08:33N 37°57' E 023°39'1111.2
2015-Jun-24 07:33N 37°48' E 023°29'4 3.5
2015-Jun-24 06:33N 37°46' E 023°25'1312.7
2015-Jun-24 05:33N 37°55' E 023°36'2 2.1
2015-Jun-24 04:33N 37°57' E 023°39'  

Dump ship's entire track history